首页
METAR-TAF:

METAR-TAF

机场 :

Wink, 得克萨斯州, 美国

纬度: 31-46-47N, 经度: 103-12-05W, 海拔: 860米

当前天气观测

该预报发布于43分钟前的10:53 UTC
风速12节,风向东南
温度 26°C
湿度 61%
气压 1013 hPa
能見度: 16.1公里
天空无云

METAR: KINK 251053Z AUTO 13012KT 10SM CLR 26/18 A2992 RMK AO2 SLP075 T02560183

时间: 06:36 (11:36 UTC)

预报

该预报发布于6小时和16分钟前的05:20 UTC
预报有效从25日的 06点(UTC)到 26日的 06点(UTC)
风速11节,风向东南
能見度: 10公里
少量云层高于9000英尺

TAF: KINK 250520Z 2506/2606 14011KT P6SM FEW090

超过4000个机场的气象观测和天气预报(METAR&TAF报告)。

可查询的气象台以黄色和红色小点在地图上表示。

将鼠标移到小点上方,可查看气象台名称。

然后点击查看天气观测和预报。

如需切换地图:点击带黑十字的绿色按钮放大地图;点击带横线的绿色按钮缩小地图;或者点击绿色箭头查看邻近地区的地图。


METAR-TAF: